sensor_id;sensor_type;location;lat;lon;timestamp;P1;durP1;ratioP1;P2;durP2;ratioP2
79212;SDS011;68639;52.380;9.822;2023-05-23T00:00:44;34.75;;;25.02;;
79212;SDS011;68639;52.380;9.822;2023-05-23T00:03:10;33.22;;;24.75;;
79212;SDS011;68639;52.380;9.822;2023-05-23T00:05:35;31.50;;;24.48;;
79212;SDS011;68639;52.380;9.822;2023-05-23T00:08:00;33.38;;;26.13;;
79212;SDS011;68639;52.380;9.822;2023-05-23T00:10:26;31.25;;;25.10;;
79212;SDS011;68639;52.380;9.822;2023-05-23T00:12:51;35.58;;;25.80;;
79212;SDS011;68639;52.380;9.822;2023-05-23T00:15:17;33.00;;;25.23;;
79212;SDS011;68639;52.380;9.822;2023-05-23T00:17:42;33.35;;;25.98;;
79212;SDS011;68639;52.380;9.822;2023-05-23T00:20:08;33.88;;;26.00;;
79212;SDS011;68639;52.380;9.822;2023-05-23T00:22:34;34.03;;;25.70;;
79212;SDS011;68639;52.380;9.822;2023-05-23T00:25:06;35.63;;;25.65;;
79212;SDS011;68639;52.380;9.822;2023-05-23T00:27:32;32.92;;;23.98;;
79212;SDS011;68639;52.380;9.822;2023-05-23T00:29:57;30.77;;;24.10;;
79212;SDS011;68639;52.380;9.822;2023-05-23T00:32:23;32.03;;;24.58;;
79212;SDS011;68639;52.380;9.822;2023-05-23T00:34:48;34.40;;;24.58;;
79212;SDS011;68639;52.380;9.822;2023-05-23T00:37:13;33.08;;;23.65;;
79212;SDS011;68639;52.380;9.822;2023-05-23T00:39:39;31.73;;;24.55;;
79212;SDS011;68639;52.380;9.822;2023-05-23T00:42:04;31.33;;;24.08;;
79212;SDS011;68639;52.380;9.822;2023-05-23T00:44:30;31.38;;;23.88;;
79212;SDS011;68639;52.380;9.822;2023-05-23T00:46:55;37.53;;;26.38;;
79212;SDS011;68639;52.380;9.822;2023-05-23T00:49:21;32.53;;;25.05;;
79212;SDS011;68639;52.380;9.822;2023-05-23T00:51:47;36.58;;;26.35;;
79212;SDS011;68639;52.380;9.822;2023-05-23T00:54:19;41.45;;;28.25;;
79212;SDS011;68639;52.380;9.822;2023-05-23T00:56:47;41.90;;;31.08;;
79212;SDS011;68639;52.380;9.822;2023-05-23T00:59:13;43.13;;;31.27;;
79212;SDS011;68639;52.380;9.822;2023-05-23T01:01:39;50.05;;;36.13;;
79212;SDS011;68639;52.380;9.822;2023-05-23T01:04:05;57.50;;;40.72;;
79212;SDS011;68639;52.380;9.822;2023-05-23T01:06:30;67.63;;;52.05;;
79212;SDS011;68639;52.380;9.822;2023-05-23T01:08:57;71.10;;;48.17;;
79212;SDS011;68639;52.380;9.822;2023-05-23T01:11:31;72.10;;;50.17;;
79212;SDS011;68639;52.380;9.822;2023-05-23T01:14:00;85.55;;;54.92;;
79212;SDS011;68639;52.380;9.822;2023-05-23T01:16:32;78.28;;;53.25;;
79212;SDS011;68639;52.380;9.822;2023-05-23T01:19:15;82.50;;;54.45;;
79212;SDS011;68639;52.380;9.822;2023-05-23T01:21:41;76.25;;;52.70;;
79212;SDS011;68639;52.380;9.822;2023-05-23T01:29:10;85.18;;;54.22;;
79212;SDS011;68639;52.380;9.822;2023-05-23T01:31:38;74.85;;;50.42;;
79212;SDS011;68639;52.380;9.822;2023-05-23T01:34:05;61.55;;;42.47;;
79212;SDS011;68639;52.380;9.822;2023-05-23T01:36:34;75.38;;;45.85;;
79212;SDS011;68639;52.380;9.822;2023-05-23T01:39:03;64.47;;;43.10;;
79212;SDS011;68639;52.380;9.822;2023-05-23T01:41:30;59.03;;;39.85;;
79212;SDS011;68639;52.380;9.822;2023-05-23T01:43:55;62.75;;;41.15;;
79212;SDS011;68639;52.380;9.822;2023-05-23T01:46:21;52.80;;;37.15;;
79212;SDS011;68639;52.380;9.822;2023-05-23T01:48:47;53.80;;;40.00;;
79212;SDS011;68639;52.380;9.822;2023-05-23T01:51:12;51.75;;;37.25;;
79212;SDS011;68639;52.380;9.822;2023-05-23T01:53:38;56.15;;;37.45;;
79212;SDS011;68639;52.380;9.822;2023-05-23T01:56:03;53.95;;;35.13;;
79212;SDS011;68639;52.380;9.822;2023-05-23T01:58:29;45.53;;;34.75;;
79212;SDS011;68639;52.380;9.822;2023-05-23T02:00:54;46.85;;;32.83;;
79212;SDS011;68639;52.380;9.822;2023-05-23T02:03:20;46.58;;;32.63;;
79212;SDS011;68639;52.380;9.822;2023-05-23T02:05:45;38.63;;;30.08;;
79212;SDS011;68639;52.380;9.822;2023-05-23T02:08:10;42.40;;;31.83;;
79212;SDS011;68639;52.380;9.822;2023-05-23T02:10:35;33.78;;;28.08;;
79212;SDS011;68639;52.380;9.822;2023-05-23T02:13:00;39.10;;;30.15;;
79212;SDS011;68639;52.380;9.822;2023-05-23T02:15:26;38.10;;;29.02;;
79212;SDS011;68639;52.380;9.822;2023-05-23T02:17:51;40.95;;;28.88;;
79212;SDS011;68639;52.380;9.822;2023-05-23T02:20:16;32.70;;;26.33;;
79212;SDS011;68639;52.380;9.822;2023-05-23T02:22:42;32.72;;;26.35;;
79212;SDS011;68639;52.380;9.822;2023-05-23T02:25:08;34.90;;;25.20;;
79212;SDS011;68639;52.380;9.822;2023-05-23T02:27:33;35.67;;;26.30;;
79212;SDS011;68639;52.380;9.822;2023-05-23T02:29:58;35.97;;;26.73;;
79212;SDS011;68639;52.380;9.822;2023-05-23T02:32:23;34.22;;;27.23;;
79212;SDS011;68639;52.380;9.822;2023-05-23T02:34:50;31.50;;;25.20;;
79212;SDS011;68639;52.380;9.822;2023-05-23T02:37:15;36.95;;;26.00;;
79212;SDS011;68639;52.380;9.822;2023-05-23T02:39:41;35.15;;;27.05;;
79212;SDS011;68639;52.380;9.822;2023-05-23T02:42:06;34.10;;;26.42;;
79212;SDS011;68639;52.380;9.822;2023-05-23T02:44:32;36.80;;;26.25;;
79212;SDS011;68639;52.380;9.822;2023-05-23T02:46:57;33.05;;;26.52;;
79212;SDS011;68639;52.380;9.822;2023-05-23T02:49:22;31.52;;;24.75;;
79212;SDS011;68639;52.380;9.822;2023-05-23T02:51:47;31.67;;;24.90;;
79212;SDS011;68639;52.380;9.822;2023-05-23T02:54:13;33.55;;;25.65;;
79212;SDS011;68639;52.380;9.822;2023-05-23T02:56:38;31.17;;;24.95;;
79212;SDS011;68639;52.380;9.822;2023-05-23T02:59:03;32.08;;;24.35;;
79212;SDS011;68639;52.380;9.822;2023-05-23T03:01:28;32.10;;;23.25;;
79212;SDS011;68639;52.380;9.822;2023-05-23T03:03:54;29.83;;;23.60;;
79212;SDS011;68639;52.380;9.822;2023-05-23T03:06:19;34.03;;;24.92;;
79212;SDS011;68639;52.380;9.822;2023-05-23T03:08:46;30.55;;;23.80;;
79212;SDS011;68639;52.380;9.822;2023-05-23T03:11:11;32.22;;;23.80;;
79212;SDS011;68639;52.380;9.822;2023-05-23T03:13:36;30.52;;;23.10;;
79212;SDS011;68639;52.380;9.822;2023-05-23T03:16:02;29.05;;;23.52;;
79212;SDS011;68639;52.380;9.822;2023-05-23T03:18:27;29.33;;;22.95;;
79212;SDS011;68639;52.380;9.822;2023-05-23T03:20:52;31.10;;;23.13;;
79212;SDS011;68639;52.380;9.822;2023-05-23T03:23:17;28.75;;;22.83;;
79212;SDS011;68639;52.380;9.822;2023-05-23T03:25:43;28.42;;;21.83;;
79212;SDS011;68639;52.380;9.822;2023-05-23T03:28:08;31.48;;;21.55;;
79212;SDS011;68639;52.380;9.822;2023-05-23T03:30:33;30.85;;;21.80;;
79212;SDS011;68639;52.380;9.822;2023-05-23T03:32:58;28.98;;;22.88;;
79212;SDS011;68639;52.380;9.822;2023-05-23T03:35:24;35.53;;;21.83;;
79212;SDS011;68639;52.380;9.822;2023-05-23T03:37:49;31.63;;;23.45;;
79212;SDS011;68639;52.380;9.822;2023-05-23T03:40:14;30.90;;;23.00;;
79212;SDS011;68639;52.380;9.822;2023-05-23T03:42:40;30.70;;;23.77;;
79212;SDS011;68639;52.380;9.822;2023-05-23T03:45:05;29.13;;;24.02;;
79212;SDS011;68639;52.380;9.822;2023-05-23T03:47:30;34.80;;;24.40;;
79212;SDS011;68639;52.380;9.822;2023-05-23T03:49:56;34.08;;;25.35;;
79212;SDS011;68639;52.380;9.822;2023-05-23T03:52:21;36.80;;;26.10;;
79212;SDS011;68639;52.380;9.822;2023-05-23T03:54:47;35.72;;;26.52;;
79212;SDS011;68639;52.380;9.822;2023-05-23T03:57:12;35.83;;;25.42;;
79212;SDS011;68639;52.380;9.822;2023-05-23T03:59:37;32.35;;;24.48;;
79212;SDS011;68639;52.380;9.822;2023-05-23T04:02:02;30.70;;;23.77;;
79212;SDS011;68639;52.380;9.822;2023-05-23T04:04:28;32.00;;;24.27;;
79212;SDS011;68639;52.380;9.822;2023-05-23T04:06:53;31.30;;;23.42;;
79212;SDS011;68639;52.380;9.822;2023-05-23T04:09:18;31.50;;;22.90;;
79212;SDS011;68639;52.380;9.822;2023-05-23T04:11:43;30.38;;;21.48;;
79212;SDS011;68639;52.380;9.822;2023-05-23T04:14:09;28.48;;;22.40;;
79212;SDS011;68639;52.380;9.822;2023-05-23T04:16:36;26.23;;;22.23;;
79212;SDS011;68639;52.380;9.822;2023-05-23T04:19:01;30.60;;;21.45;;
79212;SDS011;68639;52.380;9.822;2023-05-23T04:21:28;27.45;;;19.83;;
79212;SDS011;68639;52.380;9.822;2023-05-23T04:23:53;22.63;;;18.40;;
79212;SDS011;68639;52.380;9.822;2023-05-23T04:26:19;21.77;;;17.25;;
79212;SDS011;68639;52.380;9.822;2023-05-23T04:28:44;24.48;;;17.92;;
79212;SDS011;68639;52.380;9.822;2023-05-23T04:31:10;28.45;;;25.15;;
79212;SDS011;68639;52.380;9.822;2023-05-23T04:33:36;24.02;;;17.23;;
79212;SDS011;68639;52.380;9.822;2023-05-23T04:36:01;23.30;;;16.60;;
79212;SDS011;68639;52.380;9.822;2023-05-23T04:38:26;22.23;;;16.60;;
79212;SDS011;68639;52.380;9.822;2023-05-23T04:40:52;22.95;;;16.10;;
79212;SDS011;68639;52.380;9.822;2023-05-23T04:43:18;23.17;;;16.65;;
79212;SDS011;68639;52.380;9.822;2023-05-23T04:45:44;21.98;;;16.35;;
79212;SDS011;68639;52.380;9.822;2023-05-23T04:48:09;20.20;;;15.07;;
79212;SDS011;68639;52.380;9.822;2023-05-23T04:50:37;19.63;;;14.68;;
79212;SDS011;68639;52.380;9.822;2023-05-23T04:53:02;21.27;;;15.32;;
79212;SDS011;68639;52.380;9.822;2023-05-23T04:55:27;22.55;;;15.70;;
79212;SDS011;68639;52.380;9.822;2023-05-23T04:57:52;20.00;;;14.88;;
79212;SDS011;68639;52.380;9.822;2023-05-23T05:00:17;18.38;;;14.60;;
79212;SDS011;68639;52.380;9.822;2023-05-23T05:02:44;22.63;;;14.60;;
79212;SDS011;68639;52.380;9.822;2023-05-23T05:05:09;25.98;;;15.88;;
79212;SDS011;68639;52.380;9.822;2023-05-23T05:07:35;22.67;;;15.18;;
79212;SDS011;68639;52.380;9.822;2023-05-23T05:10:01;20.50;;;15.60;;
79212;SDS011;68639;52.380;9.822;2023-05-23T05:12:26;21.88;;;16.10;;
79212;SDS011;68639;52.380;9.822;2023-05-23T05:14:52;25.42;;;15.48;;
79212;SDS011;68639;52.380;9.822;2023-05-23T05:17:17;24.48;;;14.90;;
79212;SDS011;68639;52.380;9.822;2023-05-23T05:19:44;20.90;;;15.63;;
79212;SDS011;68639;52.380;9.822;2023-05-23T05:22:09;21.10;;;14.13;;
79212;SDS011;68639;52.380;9.822;2023-05-23T05:24:34;23.17;;;15.98;;
79212;SDS011;68639;52.380;9.822;2023-05-23T05:27:00;21.60;;;15.50;;
79212;SDS011;68639;52.380;9.822;2023-05-23T05:29:25;25.58;;;15.57;;
79212;SDS011;68639;52.380;9.822;2023-05-23T05:31:50;24.33;;;16.00;;
79212;SDS011;68639;52.380;9.822;2023-05-23T05:34:16;23.85;;;15.95;;
79212;SDS011;68639;52.380;9.822;2023-05-23T05:36:41;24.23;;;16.30;;
79212;SDS011;68639;52.380;9.822;2023-05-23T05:39:11;19.80;;;14.52;;
79212;SDS011;68639;52.380;9.822;2023-05-23T05:41:37;23.50;;;15.23;;
79212;SDS011;68639;52.380;9.822;2023-05-23T05:44:02;23.45;;;16.27;;
79212;SDS011;68639;52.380;9.822;2023-05-23T05:46:27;21.20;;;14.75;;
79212;SDS011;68639;52.380;9.822;2023-05-23T05:48:52;26.90;;;17.73;;
79212;SDS011;68639;52.380;9.822;2023-05-23T05:51:18;20.42;;;14.63;;
79212;SDS011;68639;52.380;9.822;2023-05-23T05:53:43;22.90;;;15.43;;
79212;SDS011;68639;52.380;9.822;2023-05-23T05:56:08;20.48;;;14.80;;
79212;SDS011;68639;52.380;9.822;2023-05-23T05:58:33;21.48;;;14.35;;
79212;SDS011;68639;52.380;9.822;2023-05-23T06:00:59;20.00;;;14.35;;
79212;SDS011;68639;52.380;9.822;2023-05-23T06:03:24;19.00;;;13.50;;
79212;SDS011;68639;52.380;9.822;2023-05-23T06:05:49;20.58;;;13.82;;
79212;SDS011;68639;52.380;9.822;2023-05-23T06:08:15;16.42;;;11.88;;
79212;SDS011;68639;52.380;9.822;2023-05-23T06:10:40;14.75;;;11.43;;
79212;SDS011;68639;52.380;9.822;2023-05-23T06:13:05;16.95;;;12.43;;
79212;SDS011;68639;52.380;9.822;2023-05-23T06:15:30;17.23;;;13.07;;
79212;SDS011;68639;52.380;9.822;2023-05-23T06:17:56;18.10;;;13.82;;
79212;SDS011;68639;52.380;9.822;2023-05-23T06:20:21;18.75;;;13.55;;
79212;SDS011;68639;52.380;9.822;2023-05-23T06:22:46;17.75;;;14.43;;
79212;SDS011;68639;52.380;9.822;2023-05-23T06:25:11;19.08;;;13.88;;
79212;SDS011;68639;52.380;9.822;2023-05-23T06:27:37;22.50;;;15.10;;
79212;SDS011;68639;52.380;9.822;2023-05-23T06:30:05;18.48;;;15.40;;
79212;SDS011;68639;52.380;9.822;2023-05-23T06:32:31;23.58;;;16.83;;
79212;SDS011;68639;52.380;9.822;2023-05-23T06:34:56;20.13;;;14.35;;
79212;SDS011;68639;52.380;9.822;2023-05-23T06:37:21;19.40;;;15.25;;
79212;SDS011;68639;52.380;9.822;2023-05-23T06:39:46;21.30;;;15.63;;
79212;SDS011;68639;52.380;9.822;2023-05-23T06:42:12;20.67;;;17.15;;
79212;SDS011;68639;52.380;9.822;2023-05-23T06:44:37;20.02;;;15.80;;
79212;SDS011;68639;52.380;9.822;2023-05-23T06:47:02;20.80;;;16.73;;
79212;SDS011;68639;52.380;9.822;2023-05-23T06:49:27;21.02;;;15.93;;
79212;SDS011;68639;52.380;9.822;2023-05-23T06:51:53;20.40;;;15.68;;
79212;SDS011;68639;52.380;9.822;2023-05-23T06:54:18;16.98;;;12.85;;
79212;SDS011;68639;52.380;9.822;2023-05-23T06:56:43;21.73;;;12.68;;
79212;SDS011;68639;52.380;9.822;2023-05-23T06:59:08;13.13;;;10.20;;
79212;SDS011;68639;52.380;9.822;2023-05-23T07:01:34;16.40;;;11.02;;
79212;SDS011;68639;52.380;9.822;2023-05-23T07:03:59;15.35;;;10.63;;
79212;SDS011;68639;52.380;9.822;2023-05-23T07:06:24;20.30;;;12.23;;
79212;SDS011;68639;52.380;9.822;2023-05-23T07:08:51;15.73;;;11.43;;
79212;SDS011;68639;52.380;9.822;2023-05-23T07:11:16;16.23;;;11.75;;
79212;SDS011;68639;52.380;9.822;2023-05-23T07:13:42;12.73;;;9.77;;
79212;SDS011;68639;52.380;9.822;2023-05-23T07:16:07;13.45;;;10.15;;
79212;SDS011;68639;52.380;9.822;2023-05-23T07:18:32;18.85;;;10.55;;
79212;SDS011;68639;52.380;9.822;2023-05-23T07:20:57;17.08;;;11.23;;
79212;SDS011;68639;52.380;9.822;2023-05-23T07:23:23;12.88;;;9.88;;
79212;SDS011;68639;52.380;9.822;2023-05-23T07:25:48;10.88;;;8.13;;
79212;SDS011;68639;52.380;9.822;2023-05-23T07:28:13;9.82;;;7.05;;
79212;SDS011;68639;52.380;9.822;2023-05-23T07:30:38;16.08;;;8.18;;
79212;SDS011;68639;52.380;9.822;2023-05-23T07:33:05;9.93;;;7.30;;
79212;SDS011;68639;52.380;9.822;2023-05-23T07:35:30;8.20;;;6.70;;
79212;SDS011;68639;52.380;9.822;2023-05-23T07:37:55;9.25;;;7.75;;
79212;SDS011;68639;52.380;9.822;2023-05-23T07:40:21;12.95;;;9.57;;
79212;SDS011;68639;52.380;9.822;2023-05-23T07:42:47;8.95;;;7.18;;
79212;SDS011;68639;52.380;9.822;2023-05-23T07:45:12;13.20;;;8.00;;
79212;SDS011;68639;52.380;9.822;2023-05-23T07:47:37;19.30;;;17.13;;
79212;SDS011;68639;52.380;9.822;2023-05-23T07:50:03;11.20;;;7.82;;
79212;SDS011;68639;52.380;9.822;2023-05-23T07:52:28;9.90;;;7.30;;
79212;SDS011;68639;52.380;9.822;2023-05-23T07:54:54;10.10;;;8.05;;
79212;SDS011;68639;52.380;9.822;2023-05-23T07:57:20;9.43;;;6.65;;
79212;SDS011;68639;52.380;9.822;2023-05-23T07:59:45;7.13;;;6.03;;
79212;SDS011;68639;52.380;9.822;2023-05-23T08:02:10;8.05;;;6.13;;
79212;SDS011;68639;52.380;9.822;2023-05-23T08:04:36;8.48;;;6.80;;
79212;SDS011;68639;52.380;9.822;2023-05-23T08:07:01;10.95;;;7.00;;
79212;SDS011;68639;52.380;9.822;2023-05-23T08:09:26;10.05;;;7.50;;
79212;SDS011;68639;52.380;9.822;2023-05-23T08:11:51;11.48;;;8.35;;
79212;SDS011;68639;52.380;9.822;2023-05-23T08:14:17;13.85;;;8.48;;
79212;SDS011;68639;52.380;9.822;2023-05-23T08:16:42;15.10;;;9.48;;
79212;SDS011;68639;52.380;9.822;2023-05-23T08:19:08;12.35;;;9.20;;
79212;SDS011;68639;52.380;9.822;2023-05-23T08:21:34;14.63;;;9.90;;
79212;SDS011;68639;52.380;9.822;2023-05-23T08:24:00;15.77;;;11.57;;
79212;SDS011;68639;52.380;9.822;2023-05-23T08:26:25;29.17;;;25.00;;
79212;SDS011;68639;52.380;9.822;2023-05-23T08:28:51;17.65;;;12.25;;
79212;SDS011;68639;52.380;9.822;2023-05-23T08:31:17;25.77;;;14.48;;
79212;SDS011;68639;52.380;9.822;2023-05-23T08:33:42;24.30;;;14.00;;
79212;SDS011;68639;52.380;9.822;2023-05-23T08:36:08;21.92;;;12.10;;
79212;SDS011;68639;52.380;9.822;2023-05-23T08:38:33;19.30;;;12.02;;
79212;SDS011;68639;52.380;9.822;2023-05-23T08:40:59;17.48;;;12.80;;
79212;SDS011;68639;52.380;9.822;2023-05-23T08:43:25;19.20;;;13.13;;
79212;SDS011;68639;52.380;9.822;2023-05-23T08:45:50;19.90;;;13.77;;
79212;SDS011;68639;52.380;9.822;2023-05-23T08:48:15;24.05;;;12.20;;
79212;SDS011;68639;52.380;9.822;2023-05-23T08:50:44;21.35;;;13.07;;
79212;SDS011;68639;52.380;9.822;2023-05-23T08:53:11;21.20;;;11.93;;
79212;SDS011;68639;52.380;9.822;2023-05-23T08:55:44;20.55;;;12.68;;
79212;SDS011;68639;52.380;9.822;2023-05-23T08:58:10;21.67;;;12.00;;
79212;SDS011;68639;52.380;9.822;2023-05-23T09:00:37;20.55;;;12.10;;
79212;SDS011;68639;52.380;9.822;2023-05-23T09:03:02;22.77;;;13.20;;
79212;SDS011;68639;52.380;9.822;2023-05-23T09:05:28;23.35;;;14.32;;
79212;SDS011;68639;52.380;9.822;2023-05-23T09:07:53;24.92;;;14.13;;
79212;SDS011;68639;52.380;9.822;2023-05-23T09:10:18;25.08;;;16.27;;
79212;SDS011;68639;52.380;9.822;2023-05-23T09:12:44;31.38;;;17.33;;
79212;SDS011;68639;52.380;9.822;2023-05-23T09:15:10;30.85;;;16.15;;
79212;SDS011;68639;52.380;9.822;2023-05-23T09:17:35;33.03;;;17.75;;
79212;SDS011;68639;52.380;9.822;2023-05-23T09:20:11;33.10;;;15.70;;
79212;SDS011;68639;52.380;9.822;2023-05-23T09:22:38;31.30;;;16.15;;
79212;SDS011;68639;52.380;9.822;2023-05-23T09:25:03;26.42;;;14.90;;
79212;SDS011;68639;52.380;9.822;2023-05-23T09:27:29;33.38;;;15.35;;
79212;SDS011;68639;52.380;9.822;2023-05-23T09:29:55;30.92;;;16.48;;
79212;SDS011;68639;52.380;9.822;2023-05-23T09:32:20;31.35;;;15.07;;
79212;SDS011;68639;52.380;9.822;2023-05-23T09:34:55;23.95;;;13.38;;
79212;SDS011;68639;52.380;9.822;2023-05-23T09:37:21;27.33;;;13.27;;
79212;SDS011;68639;52.380;9.822;2023-05-23T09:39:48;26.05;;;10.57;;
79212;SDS011;68639;52.380;9.822;2023-05-23T09:42:20;28.73;;;20.33;;
79212;SDS011;68639;52.380;9.822;2023-05-23T09:44:46;30.15;;;10.82;;
79212;SDS011;68639;52.380;9.822;2023-05-23T09:47:12;20.98;;;9.50;;
79212;SDS011;68639;52.380;9.822;2023-05-23T09:49:40;31.27;;;14.25;;
79212;SDS011;68639;52.380;9.822;2023-05-23T09:52:05;20.10;;;9.00;;
79212;SDS011;68639;52.380;9.822;2023-05-23T09:54:31;21.10;;;10.23;;
79212;SDS011;68639;52.380;9.822;2023-05-23T09:56:56;29.13;;;20.08;;
79212;SDS011;68639;52.380;9.822;2023-05-23T09:59:24;19.10;;;9.88;;
79212;SDS011;68639;52.380;9.822;2023-05-23T10:01:51;15.70;;;8.60;;
79212;SDS011;68639;52.380;9.822;2023-05-23T10:04:20;19.92;;;8.35;;
79212;SDS011;68639;52.380;9.822;2023-05-23T10:06:52;16.85;;;7.57;;
79212;SDS011;68639;52.380;9.822;2023-05-23T10:09:19;17.35;;;8.13;;
79212;SDS011;68639;52.380;9.822;2023-05-23T10:14:29;25.88;;;10.60;;
79212;SDS011;68639;52.380;9.822;2023-05-23T10:19:47;38.88;;;17.17;;
79212;SDS011;68639;52.380;9.822;2023-05-23T10:22:13;12.32;;;6.32;;
79212;SDS011;68639;52.380;9.822;2023-05-23T10:24:40;9.13;;;3.78;;
79212;SDS011;68639;52.380;9.822;2023-05-23T10:27:06;16.75;;;7.70;;
79212;SDS011;68639;52.380;9.822;2023-05-23T10:29:31;7.80;;;3.25;;
79212;SDS011;68639;52.380;9.822;2023-05-23T10:31:57;8.10;;;3.45;;
79212;SDS011;68639;52.380;9.822;2023-05-23T10:39:27;6.82;;;4.38;;
79212;SDS011;68639;52.380;9.822;2023-05-23T10:41:56;11.70;;;5.18;;
79212;SDS011;68639;52.380;9.822;2023-05-23T10:44:27;12.55;;;5.40;;
79212;SDS011;68639;52.380;9.822;2023-05-23T10:46:57;12.25;;;5.80;;
79212;SDS011;68639;52.380;9.822;2023-05-23T10:52:03;15.50;;;6.07;;
79212;SDS011;68639;52.380;9.822;2023-05-23T10:54:33;16.35;;;6.30;;
79212;SDS011;68639;52.380;9.822;2023-05-23T10:57:02;15.68;;;5.72;;
79212;SDS011;68639;52.380;9.822;2023-05-23T10:59:27;18.77;;;8.40;;
79212;SDS011;68639;52.380;9.822;2023-05-23T11:01:53;15.00;;;6.35;;
79212;SDS011;68639;52.380;9.822;2023-05-23T11:04:26;17.08;;;7.90;;
79212;SDS011;68639;52.380;9.822;2023-05-23T11:06:54;20.00;;;8.90;;
79212;SDS011;68639;52.380;9.822;2023-05-23T11:09:21;22.08;;;9.80;;
79212;SDS011;68639;52.380;9.822;2023-05-23T11:14:18;34.03;;;14.07;;
79212;SDS011;68639;52.380;9.822;2023-05-23T11:16:44;33.85;;;10.80;;
79212;SDS011;68639;52.380;9.822;2023-05-23T11:21:45;32.47;;;11.55;;
79212;SDS011;68639;52.380;9.822;2023-05-23T11:24:10;45.38;;;27.45;;
79212;SDS011;68639;52.380;9.822;2023-05-23T11:26:35;28.52;;;12.98;;
79212;SDS011;68639;52.380;9.822;2023-05-23T11:29:01;24.65;;;8.82;;
79212;SDS011;68639;52.380;9.822;2023-05-23T11:31:28;26.67;;;9.98;;
79212;SDS011;68639;52.380;9.822;2023-05-23T11:33:53;26.98;;;9.70;;
79212;SDS011;68639;52.380;9.822;2023-05-23T11:36:22;26.80;;;9.75;;
79212;SDS011;68639;52.380;9.822;2023-05-23T11:38:51;29.02;;;11.55;;
79212;SDS011;68639;52.380;9.822;2023-05-23T11:41:16;26.02;;;11.15;;
79212;SDS011;68639;52.380;9.822;2023-05-23T11:43:48;28.73;;;12.50;;
79212;SDS011;68639;52.380;9.822;2023-05-23T11:46:14;25.23;;;11.18;;
79212;SDS011;68639;52.380;9.822;2023-05-23T11:48:43;27.13;;;9.30;;
79212;SDS011;68639;52.380;9.822;2023-05-23T11:51:08;23.23;;;8.82;;
79212;SDS011;68639;52.380;9.822;2023-05-23T11:53:34;23.88;;;9.57;;
79212;SDS011;68639;52.380;9.822;2023-05-23T11:56:00;26.90;;;9.40;;
79212;SDS011;68639;52.380;9.822;2023-05-23T11:58:35;24.67;;;9.68;;
79212;SDS011;68639;52.380;9.822;2023-05-23T12:01:10;23.27;;;8.45;;
79212;SDS011;68639;52.380;9.822;2023-05-23T12:03:48;19.08;;;7.63;;
79212;SDS011;68639;52.380;9.822;2023-05-23T12:06:15;28.05;;;8.52;;
79212;SDS011;68639;52.380;9.822;2023-05-23T12:08:40;29.40;;;7.25;;
79212;SDS011;68639;52.380;9.822;2023-05-23T12:11:05;22.48;;;7.00;;
79212;SDS011;68639;52.380;9.822;2023-05-23T12:13:31;20.75;;;6.70;;
79212;SDS011;68639;52.380;9.822;2023-05-23T12:16:00;23.67;;;5.53;;
79212;SDS011;68639;52.380;9.822;2023-05-23T12:18:32;15.80;;;5.40;;
79212;SDS011;68639;52.380;9.822;2023-05-23T12:21:03;22.55;;;5.68;;
79212;SDS011;68639;52.380;9.822;2023-05-23T12:23:31;21.33;;;5.05;;
79212;SDS011;68639;52.380;9.822;2023-05-23T12:25:57;27.25;;;5.95;;
79212;SDS011;68639;52.380;9.822;2023-05-23T12:31:21;19.38;;;5.07;;
79212;SDS011;68639;52.380;9.822;2023-05-23T12:33:46;15.52;;;4.57;;
79212;SDS011;68639;52.380;9.822;2023-05-23T12:36:12;18.90;;;4.50;;
79212;SDS011;68639;52.380;9.822;2023-05-23T12:38:37;16.73;;;5.05;;
79212;SDS011;68639;52.380;9.822;2023-05-23T12:41:10;26.30;;;5.20;;
79212;SDS011;68639;52.380;9.822;2023-05-23T12:43:39;18.85;;;5.20;;
79212;SDS011;68639;52.380;9.822;2023-05-23T12:46:05;18.92;;;5.22;;
79212;SDS011;68639;52.380;9.822;2023-05-23T12:48:30;20.13;;;4.70;;
79212;SDS011;68639;52.380;9.822;2023-05-23T12:50:56;18.17;;;5.10;;
79212;SDS011;68639;52.380;9.822;2023-05-23T12:53:21;19.75;;;5.15;;
79212;SDS011;68639;52.380;9.822;2023-05-23T12:55:46;21.30;;;5.43;;
79212;SDS011;68639;52.380;9.822;2023-05-23T12:58:11;19.50;;;4.55;;
79212;SDS011;68639;52.380;9.822;2023-05-23T13:00:36;19.67;;;4.43;;
79212;SDS011;68639;52.380;9.822;2023-05-23T13:03:02;19.40;;;4.70;;
79212;SDS011;68639;52.380;9.822;2023-05-23T13:05:27;18.65;;;4.32;;
79212;SDS011;68639;52.380;9.822;2023-05-23T13:07:53;23.38;;;4.90;;
79212;SDS011;68639;52.380;9.822;2023-05-23T13:10:19;18.60;;;4.45;;
79212;SDS011;68639;52.380;9.822;2023-05-23T13:12:44;23.02;;;4.35;;
79212;SDS011;68639;52.380;9.822;2023-05-23T13:15:10;18.92;;;4.50;;
79212;SDS011;68639;52.380;9.822;2023-05-23T13:17:35;22.63;;;4.07;;
79212;SDS011;68639;52.380;9.822;2023-05-23T13:20:00;19.48;;;4.13;;
79212;SDS011;68639;52.380;9.822;2023-05-23T13:22:28;19.58;;;4.07;;
79212;SDS011;68639;52.380;9.822;2023-05-23T13:24:54;16.77;;;4.07;;
79212;SDS011;68639;52.380;9.822;2023-05-23T13:27:19;23.65;;;4.47;;
79212;SDS011;68639;52.380;9.822;2023-05-23T13:29:45;20.08;;;4.30;;
79212;SDS011;68639;52.380;9.822;2023-05-23T13:32:10;19.05;;;4.15;;
79212;SDS011;68639;52.380;9.822;2023-05-23T13:34:36;15.98;;;4.07;;
79212;SDS011;68639;52.380;9.822;2023-05-23T13:37:01;17.92;;;4.25;;
79212;SDS011;68639;52.380;9.822;2023-05-23T13:39:26;21.92;;;4.22;;
79212;SDS011;68639;52.380;9.822;2023-05-23T13:41:52;19.20;;;4.47;;
79212;SDS011;68639;52.380;9.822;2023-05-23T13:44:17;17.42;;;4.45;;
79212;SDS011;68639;52.380;9.822;2023-05-23T13:46:42;19.33;;;4.68;;
79212;SDS011;68639;52.380;9.822;2023-05-23T13:49:08;25.45;;;4.22;;
79212;SDS011;68639;52.380;9.822;2023-05-23T13:51:33;17.17;;;4.63;;
79212;SDS011;68639;52.380;9.822;2023-05-23T13:54:00;15.77;;;4.35;;
79212;SDS011;68639;52.380;9.822;2023-05-23T13:56:25;31.23;;;4.90;;
79212;SDS011;68639;52.380;9.822;2023-05-23T13:58:51;22.60;;;4.72;;
79212;SDS011;68639;52.380;9.822;2023-05-23T14:01:16;16.50;;;4.15;;
79212;SDS011;68639;52.380;9.822;2023-05-23T14:03:41;20.02;;;5.07;;
79212;SDS011;68639;52.380;9.822;2023-05-23T14:06:07;23.17;;;5.10;;
79212;SDS011;68639;52.380;9.822;2023-05-23T14:08:32;22.35;;;4.75;;
79212;SDS011;68639;52.380;9.822;2023-05-23T14:10:57;20.92;;;5.10;;
79212;SDS011;68639;52.380;9.822;2023-05-23T14:13:22;21.02;;;4.65;;
79212;SDS011;68639;52.380;9.822;2023-05-23T14:15:48;15.05;;;4.43;;
79212;SDS011;68639;52.380;9.822;2023-05-23T14:18:13;17.50;;;4.97;;
79212;SDS011;68639;52.380;9.822;2023-05-23T14:20:38;17.52;;;4.80;;
79212;SDS011;68639;52.380;9.822;2023-05-23T14:23:04;18.63;;;4.50;;
79212;SDS011;68639;52.380;9.822;2023-05-23T14:25:29;23.75;;;5.50;;
79212;SDS011;68639;52.380;9.822;2023-05-23T14:27:54;20.90;;;5.50;;
79212;SDS011;68639;52.380;9.822;2023-05-23T14:30:19;17.55;;;4.60;;
79212;SDS011;68639;52.380;9.822;2023-05-23T14:32:45;17.83;;;4.60;;
79212;SDS011;68639;52.380;9.822;2023-05-23T14:35:10;19.65;;;4.80;;
79212;SDS011;68639;52.380;9.822;2023-05-23T14:37:36;18.65;;;4.70;;
79212;SDS011;68639;52.380;9.822;2023-05-23T14:40:02;24.92;;;4.57;;
79212;SDS011;68639;52.380;9.822;2023-05-23T14:42:27;18.45;;;3.88;;
79212;SDS011;68639;52.380;9.822;2023-05-23T14:44:52;18.98;;;4.75;;